createdAt,value
2022-08-26T00:04:07.967Z,3.55
2022-08-26T00:09:09.271Z,4.10
2022-08-26T00:14:11.033Z,3.42
2022-08-26T00:19:12.090Z,3.78
2022-08-26T00:24:14.581Z,4.55
2022-08-26T00:29:16.062Z,3.92
2022-08-26T00:34:19.239Z,3.55
2022-08-26T00:39:20.625Z,3.80
2022-08-26T00:44:21.730Z,4.05
2022-08-26T00:49:35.017Z,4.12
2022-08-26T00:54:40.417Z,4.12
2022-08-26T00:59:52.273Z,4.12
2022-08-26T01:04:58.305Z,4.40
2022-08-26T01:10:01.440Z,4.35
2022-08-26T01:15:02.865Z,3.60
2022-08-26T01:20:31.477Z,3.70
2022-08-26T01:25:38.334Z,4.87
2022-08-26T01:30:41.381Z,4.37
2022-08-26T01:35:44.154Z,4.40
2022-08-26T01:40:46.260Z,4.80
2022-08-26T01:45:48.658Z,4.60
2022-08-26T01:50:51.249Z,5.00
2022-08-26T01:55:56.400Z,4.65
2022-08-26T02:00:58.128Z,4.18
2022-08-26T02:06:03.735Z,5.12
2022-08-26T02:11:06.020Z,4.70
2022-08-26T02:16:08.498Z,5.33
2022-08-26T02:21:11.313Z,5.53
2022-08-26T02:31:20.247Z,4.30
2022-08-26T02:36:28.450Z,4.70
2022-08-26T02:41:29.853Z,4.70
2022-08-26T02:46:33.967Z,4.35
2022-08-26T02:51:35.687Z,4.90
2022-08-26T02:56:36.647Z,4.43
2022-08-26T03:01:39.737Z,5.07
2022-08-26T03:06:41.622Z,5.03
2022-08-26T03:11:42.621Z,5.37
2022-08-26T03:16:44.611Z,5.53
2022-08-26T03:21:51.611Z,5.20
2022-08-26T03:26:53.295Z,6.20
2022-08-26T03:31:54.678Z,5.53
2022-08-26T03:36:55.531Z,6.45
2022-08-26T03:41:58.247Z,5.72
2022-08-26T03:46:59.107Z,6.63
2022-08-26T03:52:00.020Z,7.25
2022-08-26T03:57:01.333Z,8.35
2022-08-26T04:02:02.337Z,10.10
2022-08-26T04:07:03.529Z,14.30
2022-08-26T04:12:05.265Z,15.40
2022-08-26T04:17:06.128Z,19.27
2022-08-26T04:22:07.774Z,22.42
2022-08-26T04:27:09.658Z,24.60
2022-08-26T04:32:10.493Z,25.73
2022-08-26T04:37:12.506Z,29.98
2022-08-26T04:42:14.934Z,30.87
2022-08-26T04:47:16.011Z,35.42
2022-08-26T04:52:17.108Z,34.05
2022-08-26T04:57:17.911Z,35.90
2022-08-26T05:02:18.800Z,39.33
2022-08-26T05:07:19.929Z,44.67
2022-08-26T05:12:20.870Z,46.80
2022-08-26T05:17:22.248Z,47.05
2022-08-26T05:22:23.146Z,51.03
2022-08-26T05:27:23.943Z,50.08
2022-08-26T05:32:24.995Z,50.40
2022-08-26T05:37:25.844Z,48.17
2022-08-26T05:42:27.244Z,50.25
2022-08-26T05:47:29.230Z,49.28
2022-08-26T05:52:31.724Z,47.70
2022-08-26T05:57:33.902Z,49.65
2022-08-26T06:02:38.291Z,49.60
2022-08-26T06:07:57.757Z,47.40
2022-08-26T06:13:09.198Z,47.60
2022-08-26T06:18:14.531Z,49.72
2022-08-26T06:28:35.643Z,49.28
2022-08-26T06:33:37.978Z,47.25
2022-08-26T06:38:41.125Z,48.72
2022-08-26T06:43:43.064Z,43.78
2022-08-26T06:48:44.223Z,42.40
2022-08-26T06:53:47.416Z,45.25
2022-08-26T06:58:49.753Z,40.90
2022-08-26T07:03:52.533Z,45.88
2022-08-26T07:09:03.383Z,43.22
2022-08-26T07:14:05.357Z,42.15
2022-08-26T07:19:11.223Z,42.88
2022-08-26T07:24:12.512Z,41.88
2022-08-26T07:29:14.145Z,38.92
2022-08-26T07:34:16.387Z,42.58
2022-08-26T07:39:19.291Z,44.45
2022-08-26T07:44:21.198Z,41.83
2022-08-26T07:49:23.710Z,43.67
2022-08-26T07:54:26.814Z,40.15
2022-08-26T07:59:28.100Z,41.55
2022-08-26T08:04:31.843Z,36.22
2022-08-26T08:09:32.735Z,38.60
2022-08-26T08:14:35.732Z,35.55
2022-08-26T08:19:39.190Z,37.75
2022-08-26T08:24:40.222Z,34.20
2022-08-26T08:29:41.072Z,39.85
2022-08-26T08:39:42.777Z,38.33
2022-08-26T08:44:52.262Z,36.35
2022-08-26T08:49:59.345Z,35.17
2022-08-26T08:55:01.827Z,33.20
2022-08-26T09:05:27.740Z,32.42
2022-08-26T09:10:36.371Z,32.65
2022-08-26T09:16:19.210Z,32.05
2022-08-26T09:21:22.902Z,29.65
2022-08-26T09:26:44.570Z,32.03
2022-08-26T09:31:45.733Z,30.58
2022-08-26T09:36:48.861Z,32.63
2022-08-26T09:42:20.078Z,33.10
2022-08-26T09:47:25.894Z,32.50
2022-08-26T09:52:27.062Z,31.60
2022-08-26T09:57:32.441Z,30.20
2022-08-26T10:02:40.798Z,28.20
2022-08-26T10:07:50.445Z,27.00
2022-08-26T10:13:05.966Z,28.80
2022-08-26T10:18:23.876Z,28.55
2022-08-26T10:23:28.606Z,30.62
2022-08-26T10:28:45.664Z,27.80
2022-08-26T10:33:46.599Z,24.95
2022-08-26T10:38:47.990Z,25.03
2022-08-26T10:43:56.177Z,28.38
2022-08-26T10:49:04.559Z,24.52
2022-08-26T10:54:19.067Z,23.67
2022-08-26T11:00:28.905Z,26.40
2022-08-26T11:05:29.948Z,25.83
2022-08-26T11:11:04.387Z,25.00
2022-08-26T11:16:07.485Z,22.17
2022-08-26T11:23:50.332Z,24.75
2022-08-26T11:28:52.549Z,25.98
2022-08-26T11:33:59.488Z,23.85
2022-08-26T11:39:20.592Z,26.92
2022-08-26T11:44:23.520Z,26.58
2022-08-26T11:49:28.204Z,24.75
2022-08-26T11:54:35.718Z,25.85
2022-08-26T11:59:40.035Z,25.75
2022-08-26T12:04:48.866Z,24.23
2022-08-26T12:09:54.416Z,23.40
2022-08-26T12:15:18.357Z,25.52
2022-08-26T12:20:47.412Z,24.63
2022-08-26T12:25:51.165Z,25.25
2022-08-26T12:31:04.366Z,24.60
2022-08-26T12:36:06.038Z,25.45
2022-08-26T12:41:06.990Z,25.03
2022-08-26T12:46:15.553Z,24.23
2022-08-26T12:51:24.900Z,25.02
2022-08-26T12:57:08.048Z,22.55
2022-08-26T13:02:09.594Z,23.27
2022-08-26T13:07:28.732Z,21.45
2022-08-26T13:12:32.769Z,20.48
2022-08-26T13:17:35.114Z,19.98
2022-08-26T13:22:36.678Z,17.92
2022-08-26T13:27:38.181Z,16.35
2022-08-26T13:32:39.060Z,14.80
2022-08-26T13:37:40.008Z,15.20
2022-08-26T13:42:49.486Z,13.23
2022-08-26T13:47:51.247Z,14.60
2022-08-26T13:52:52.751Z,18.20
2022-08-26T13:57:55.004Z,19.62
2022-08-26T14:07:57.269Z,20.00
2022-08-26T14:12:58.848Z,17.87
2022-08-26T14:18:02.302Z,15.98
2022-08-26T14:23:13.655Z,15.43
2022-08-26T14:28:15.727Z,16.20
2022-08-26T14:33:19.372Z,16.00
2022-08-26T14:38:20.662Z,15.30
2022-08-26T14:43:21.556Z,15.07
2022-08-26T14:48:22.473Z,15.75
2022-08-26T14:53:41.465Z,19.25
2022-08-26T14:58:43.233Z,21.58
2022-08-26T15:03:44.321Z,21.87
2022-08-26T15:08:45.187Z,19.65
2022-08-26T15:13:46.569Z,16.42
2022-08-26T15:18:48.587Z,16.70
2022-08-26T15:23:51.655Z,16.25
2022-08-26T15:28:52.695Z,15.05
2022-08-26T15:33:55.619Z,12.80
2022-08-26T15:38:59.219Z,12.35
2022-08-26T15:44:01.192Z,11.50
2022-08-26T15:49:05.338Z,12.52
2022-08-26T15:54:10.276Z,13.17
2022-08-26T15:59:11.645Z,13.32
2022-08-26T16:04:13.818Z,13.30
2022-08-26T16:09:15.421Z,13.73
2022-08-26T16:14:16.310Z,12.52
2022-08-26T16:19:17.599Z,13.43
2022-08-26T16:24:27.118Z,12.43
2022-08-26T16:34:32.654Z,10.57
2022-08-26T16:39:33.514Z,9.82
2022-08-26T16:44:43.814Z,11.25
2022-08-26T16:49:45.932Z,10.43
2022-08-26T16:54:46.822Z,11.57
2022-08-26T16:59:47.892Z,10.63
2022-08-26T17:04:50.224Z,10.40
2022-08-26T17:14:52.132Z,10.45
2022-08-26T17:19:53.407Z,11.48
2022-08-26T17:24:54.215Z,10.52
2022-08-26T17:29:55.547Z,9.48
2022-08-26T17:34:57.074Z,11.40
2022-08-26T17:39:58.025Z,9.85
2022-08-26T17:44:59.055Z,10.48
2022-08-26T17:50:03.784Z,10.90
2022-08-26T17:55:06.392Z,10.80
2022-08-26T18:05:14.713Z,9.95
2022-08-26T18:15:18.335Z,11.05
2022-08-26T18:20:19.726Z,12.07
2022-08-26T18:25:20.824Z,11.15
2022-08-26T18:30:21.993Z,11.75
2022-08-26T18:35:27.523Z,12.52
2022-08-26T18:40:28.433Z,12.45
2022-08-26T18:45:29.609Z,13.95
2022-08-26T18:50:30.469Z,14.15
2022-08-26T18:55:31.498Z,12.95
2022-08-26T19:00:32.495Z,15.10
2022-08-26T19:05:39.561Z,15.60
2022-08-26T19:10:40.799Z,14.23
2022-08-26T19:15:43.750Z,15.13
2022-08-26T19:20:46.857Z,14.87
2022-08-26T19:25:51.370Z,15.40
2022-08-26T19:30:53.247Z,13.95
2022-08-26T19:35:54.938Z,13.88
2022-08-26T19:40:55.821Z,14.77
2022-08-26T19:45:56.942Z,14.77
2022-08-26T19:50:58.478Z,12.98
2022-08-26T19:55:59.399Z,13.75
2022-08-26T20:01:00.407Z,13.15
2022-08-26T20:06:07.497Z,13.30
2022-08-26T20:11:11.745Z,12.25
2022-08-26T20:16:14.725Z,11.07
2022-08-26T20:21:28.386Z,11.15
2022-08-26T20:26:33.958Z,11.73
2022-08-26T20:31:35.540Z,11.65
2022-08-26T20:36:38.282Z,11.85
2022-08-26T20:41:39.892Z,11.77
2022-08-26T20:46:40.763Z,11.93
2022-08-26T20:51:44.727Z,10.50
2022-08-26T20:56:46.658Z,11.77
2022-08-26T21:01:48.375Z,11.60
2022-08-26T21:06:52.814Z,11.82
2022-08-26T21:11:54.427Z,10.82
2022-08-26T21:16:55.306Z,11.55
2022-08-26T21:21:56.136Z,14.45
2022-08-26T21:26:57.468Z,15.75
2022-08-26T21:31:58.592Z,14.30
2022-08-26T21:36:59.771Z,15.20
2022-08-26T21:42:00.960Z,15.75
2022-08-26T21:47:04.078Z,15.35
2022-08-26T21:52:05.433Z,14.15
2022-08-26T21:57:06.555Z,14.27
2022-08-26T22:02:07.610Z,13.13
2022-08-26T22:07:08.516Z,12.35
2022-08-26T22:12:11.194Z,13.38
2022-08-26T22:17:12.303Z,11.98
2022-08-26T22:22:14.049Z,12.73
2022-08-26T22:27:14.876Z,12.10
2022-08-26T22:32:17.824Z,14.55
2022-08-26T22:42:19.515Z,15.73
2022-08-26T22:47:20.375Z,15.63
2022-08-26T22:52:21.242Z,16.37
2022-08-26T22:57:22.094Z,17.45
2022-08-26T23:02:23.499Z,16.42
2022-08-26T23:07:24.373Z,18.90
2022-08-26T23:12:27.037Z,19.58
2022-08-26T23:17:27.865Z,18.52
2022-08-26T23:22:28.724Z,17.60
2022-08-26T23:27:29.585Z,16.62
2022-08-26T23:32:30.730Z,15.88
2022-08-26T23:37:38.187Z,19.33
2022-08-26T23:42:41.464Z,20.92
2022-08-26T23:47:42.303Z,17.35
2022-08-26T23:53:01.509Z,18.95
2022-08-26T23:58:03.001Z,16.52
